createdAt,value
2023-04-16T00:04:03.957Z,1020.4
2023-04-16T00:09:03.828Z,1020.4
2023-04-16T00:14:01.249Z,1020.5
2023-04-16T00:19:01.411Z,1020.5
2023-04-16T00:24:00.176Z,1020.5
2023-04-16T00:28:59.963Z,1020.5
2023-04-16T00:33:58.393Z,1020.5
2023-04-16T00:38:58.171Z,1020.5
2023-04-16T00:43:58.404Z,1020.5
2023-04-16T00:48:57.788Z,1020.5
2023-04-16T00:53:56.840Z,1020.6
2023-04-16T00:58:57.536Z,1020.6
2023-04-16T01:30:18.895Z,1020.9
2023-04-16T01:50:14.188Z,1021.1
2023-04-16T03:04:08.942Z,1021.3
2023-04-16T03:09:08.198Z,1021.4
2023-04-16T03:14:07.340Z,1021.5
2023-04-16T03:19:06.884Z,1021.5
2023-04-16T03:24:06.876Z,1021.5
2023-04-16T03:29:06.367Z,1021.6
2023-04-16T03:34:07.179Z,1021.6
2023-04-16T03:39:04.887Z,1021.5
2023-04-16T03:44:04.675Z,1021.5
2023-04-16T03:49:03.609Z,1021.5
2023-04-16T03:54:03.547Z,1021.6
2023-04-16T03:59:02.292Z,1021.6
2023-04-16T04:04:02.034Z,1021.6
2023-04-16T04:09:01.658Z,1021.7
2023-04-16T04:14:03.127Z,1021.7
2023-04-16T04:18:59.932Z,1021.8
2023-04-16T04:23:59.534Z,1021.6
2023-04-16T04:28:59.926Z,1021.8
2023-04-16T04:33:59.223Z,1021.8
2023-04-16T04:38:57.444Z,1021.9
2023-04-16T04:43:57.223Z,1021.9
2023-04-16T04:48:57.528Z,1022
2023-04-16T04:53:56.693Z,1022.1
2023-04-16T04:58:56.097Z,1022.1
2023-04-16T05:55:12.450Z,1022.5
2023-04-16T06:19:41.179Z,1022.7
2023-04-16T06:24:41.424Z,1022.6
2023-04-16T06:29:43.508Z,1022.6
2023-04-16T06:39:40.428Z,1022.8
2023-04-16T06:44:42.612Z,1022.8
2023-04-16T06:49:40.135Z,1022.9
2023-04-16T06:54:39.909Z,1022.9
2023-04-16T07:04:15.028Z,1023
2023-04-16T07:09:13.643Z,1023.1
2023-04-16T07:14:13.244Z,1023
2023-04-16T07:19:14.815Z,1023.1
2023-04-16T07:24:11.865Z,1023.1
2023-04-16T07:29:11.276Z,1023
2023-04-16T07:34:10.614Z,1023.1
2023-04-16T07:39:10.060Z,1023.1
2023-04-16T07:44:09.473Z,1023.1
2023-04-16T07:49:09.676Z,1023.1
2023-04-16T07:54:08.725Z,1023.1
2023-04-16T07:59:24.800Z,1023.2
2023-04-16T08:04:07.409Z,1023.2
2023-04-16T08:09:07.345Z,1023.2
2023-04-16T08:14:07.302Z,1023.2
2023-04-16T08:19:07.169Z,1023.4
2023-04-16T08:24:05.610Z,1023.4
2023-04-16T08:29:04.859Z,1023.4
2023-04-16T08:34:05.353Z,1023.4
2023-04-16T08:39:04.919Z,1023.5
2023-04-16T08:44:04.060Z,1023.6
2023-04-16T08:49:03.627Z,1023.6
2023-04-16T08:54:03.808Z,1023.6
2023-04-16T08:59:02.904Z,1023.6
2023-04-16T09:04:04.509Z,1023.6
2023-04-16T09:09:00.662Z,1023.6
2023-04-16T09:14:01.103Z,1023.7
2023-04-16T09:19:00.404Z,1023.8
2023-04-16T09:23:59.686Z,1023.8
2023-04-16T09:28:59.264Z,1023.8
2023-04-16T09:33:59.209Z,1023.8
2023-04-16T09:38:58.441Z,1023.8
2023-04-16T09:43:59.333Z,1023.9
2023-04-16T09:48:56.692Z,1024
2023-04-16T09:53:56.730Z,1023.9
2023-04-16T09:58:56.668Z,1023.9
2023-04-16T10:05:17.581Z,1023.9
2023-04-16T10:10:16.720Z,1023.9
2023-04-16T10:15:16.550Z,1023.9
2023-04-16T10:20:17.136Z,1024
2023-04-16T10:25:15.554Z,1023.9
2023-04-16T10:30:15.178Z,1024
2023-04-16T10:35:15.133Z,1024
2023-04-16T10:40:14.859Z,1023.9
2023-04-16T10:45:12.955Z,1023.9
2023-04-16T10:50:12.870Z,1023.9
2023-04-16T10:55:12.559Z,1023.9
2023-04-16T11:04:32.622Z,1023.9
2023-04-16T11:09:41.764Z,1023.9
2023-04-16T11:14:41.016Z,1023.9
2023-04-16T11:19:42.211Z,1023.9
2023-04-16T11:24:39.066Z,1023.8
2023-04-16T11:29:39.351Z,1023.8
2023-04-16T11:34:39.189Z,1023.8
2023-04-16T11:39:37.215Z,1023.8
2023-04-16T11:44:37.469Z,1023.8
2023-04-16T11:49:37.527Z,1023.8
2023-04-16T11:54:37.314Z,1023.9
2023-04-16T11:59:14.636Z,1023.8
2023-04-16T12:04:14.245Z,1023.9
2023-04-16T12:09:12.936Z,1023.9
2023-04-16T12:14:12.574Z,1023.9
2023-04-16T12:19:11.573Z,1023.9
2023-04-16T12:24:11.261Z,1024
2023-04-16T12:29:10.644Z,1023.9
2023-04-16T12:34:09.419Z,1023.9
2023-04-16T12:39:08.794Z,1023.9
2023-04-16T12:44:08.832Z,1023.9
2023-04-16T12:49:09.806Z,1023.9
2023-04-16T12:54:06.838Z,1023.9
2023-04-16T12:59:06.472Z,1023.9
2023-04-16T13:04:07.082Z,1023.9
2023-04-16T13:09:06.078Z,1024
2023-04-16T13:14:04.527Z,1024
2023-04-16T13:19:03.940Z,1023.9
2023-04-16T13:24:04.256Z,1024
2023-04-16T13:29:03.567Z,1024
2023-04-16T13:34:03.457Z,1024
2023-04-16T13:39:02.507Z,1024
2023-04-16T13:44:02.974Z,1024.1
2023-04-16T13:49:02.356Z,1024.1
2023-04-16T13:54:03.010Z,1024.1
2023-04-16T14:15:19.663Z,1023.9
2023-04-16T14:50:15.152Z,1024
2023-04-16T15:14:15.161Z,1023.9
2023-04-16T15:49:10.889Z,1024.1
2023-04-16T17:04:03.351Z,1024.5
2023-04-16T17:09:02.265Z,1024.5
2023-04-16T17:14:02.747Z,1024.6
2023-04-16T17:19:00.447Z,1024.6
2023-04-16T17:24:02.797Z,1024.6
2023-04-16T17:29:00.230Z,1024.7
2023-04-16T17:34:00.807Z,1024.8
2023-04-16T17:38:58.603Z,1024.8
2023-04-16T17:43:58.008Z,1024.8
2023-04-16T17:48:57.925Z,1024.9
2023-04-16T17:53:57.249Z,1024.9
2023-04-16T17:58:58.184Z,1024.8
2023-04-16T20:04:14.013Z,1026.1
2023-04-16T20:09:13.497Z,1026
2023-04-16T20:14:11.955Z,1026.1
2023-04-16T20:19:19.486Z,1026.1
2023-04-16T20:24:11.509Z,1026.1
2023-04-16T20:29:12.594Z,1026.1
2023-04-16T20:34:09.594Z,1026.2
2023-04-16T20:39:09.399Z,1026.2
2023-04-16T20:44:09.559Z,1026.3
2023-04-16T20:49:09.037Z,1026.3
2023-04-16T20:54:07.187Z,1026.3
2023-04-16T20:59:07.058Z,1026.2
2023-04-16T21:04:07.786Z,1026.3
2023-04-16T21:09:06.382Z,1026.3
2023-04-16T21:14:05.915Z,1026.3
2023-04-16T21:19:05.367Z,1026.4
2023-04-16T21:24:04.902Z,1026.4
2023-04-16T21:29:06.154Z,1026.4
2023-04-16T21:34:04.819Z,1026.4
2023-04-16T21:39:02.744Z,1026.4
2023-04-16T21:44:02.814Z,1026.3
2023-04-16T21:49:01.583Z,1026.4
2023-04-16T21:54:01.395Z,1026.4
2023-04-16T21:58:59.332Z,1026.4
2023-04-16T22:03:59.582Z,1026.4
2023-04-16T22:08:58.518Z,1026.4
2023-04-16T22:13:59.446Z,1026.4
2023-04-16T22:18:56.780Z,1026.5
2023-04-16T22:23:56.405Z,1026.5
2023-04-16T22:28:56.804Z,1026.4
2023-04-16T22:33:56.358Z,1026.6
2023-04-16T22:38:54.545Z,1026.6
2023-04-16T22:44:04.971Z,1026.6
2023-04-16T22:48:55.209Z,1026.6
2023-04-16T22:53:53.537Z,1026.5
2023-04-16T22:58:53.097Z,1026.6
2023-04-16T23:10:12.981Z,1026.5
